createdAt,value
2022-08-28T10:39:56.071Z,78567.19
2022-08-28T10:42:46.957Z,78567.66
2022-08-28T10:45:22.528Z,78574.00
2022-08-28T10:48:02.887Z,78567.22
2022-08-28T10:50:44.270Z,78571.28
2022-08-28T10:53:21.124Z,78580.75
2022-08-28T10:56:01.484Z,78568.16
2022-08-28T10:58:36.007Z,78572.25
2022-08-28T11:01:13.827Z,78575.22
2022-08-28T11:03:53.841Z,78568.25
2022-08-28T11:06:50.097Z,78566.75
2022-08-28T11:09:30.144Z,78557.41
2022-08-28T11:12:11.145Z,78575.31
2022-08-28T11:14:48.487Z,78575.25
2022-08-28T11:17:26.624Z,78575.84
2022-08-28T11:20:14.654Z,78582.44
2022-08-28T11:22:54.290Z,78582.03
2022-08-28T11:25:32.394Z,78584.81
2022-08-28T11:28:25.823Z,78587.72
2022-08-28T11:31:07.677Z,78586.81
2022-08-28T11:34:35.862Z,78593.88
2022-08-28T11:37:05.783Z,78588.78
2022-08-28T11:43:41.765Z,78580.09
2022-08-28T11:46:39.160Z,78590.69
2022-08-28T11:54:28.509Z,78583.00
2022-08-28T12:01:10.477Z,78579.81
2022-08-28T12:03:56.689Z,78584.72
2022-08-28T12:06:51.624Z,78580.84
2022-08-28T12:09:51.530Z,78572.44
2022-08-28T12:12:24.809Z,78571.63
2022-08-28T12:14:57.849Z,78575.03
2022-08-28T12:17:47.894Z,78571.47
2022-08-28T12:20:35.368Z,78555.34
2022-08-28T12:23:34.104Z,78562.28
2022-08-28T12:26:59.926Z,78562.44
2022-08-28T12:29:53.638Z,78556.91
2022-08-28T12:33:05.263Z,78567.19
2022-08-28T12:35:44.261Z,78561.38
2022-08-28T12:42:03.607Z,78572.06
2022-08-28T12:44:34.641Z,78558.72
2022-08-28T12:47:04.507Z,78574.34
2022-08-28T12:50:26.034Z,78564.94
2022-08-28T12:52:59.334Z,78567.97
2022-08-28T12:55:30.020Z,78557.47
2022-08-28T12:57:59.867Z,78561.28
2022-08-28T13:00:37.275Z,78571.56
2022-08-28T13:03:27.508Z,78574.03
2022-08-28T13:06:10.647Z,78571.22
2022-08-28T13:08:41.118Z,78568.94
2022-08-28T13:11:11.233Z,78573.66
2022-08-28T13:13:50.569Z,78567.38
2022-08-28T13:16:38.800Z,78582.28
2022-08-28T13:19:09.413Z,78579.91
2022-08-28T13:21:53.892Z,78578.34
2022-08-28T13:24:24.038Z,78577.03
2022-08-28T13:27:13.880Z,78578.75
2022-08-28T13:30:01.351Z,78578.94
2022-08-28T13:32:34.631Z,78575.06
2022-08-28T13:35:17.949Z,78578.81
2022-08-28T13:38:00.045Z,78585.72
2022-08-28T13:40:57.398Z,78579.31
2022-08-28T13:43:31.203Z,78575.72
2022-08-28T13:46:01.114Z,78585.53
2022-08-28T13:48:31.515Z,78571.69
2022-08-28T13:51:10.259Z,78567.41
2022-08-28T13:53:41.154Z,78557.75
2022-08-28T13:56:11.057Z,78576.09
2022-08-28T13:58:40.919Z,78576.13
2022-08-28T14:01:13.071Z,78576.69
2022-08-28T14:03:43.488Z,78563.19
2022-08-28T14:06:19.740Z,78589.44
2022-08-28T14:08:52.834Z,78581.63
2022-08-28T14:11:23.720Z,78572.22
2022-08-28T14:13:55.710Z,78585.56
2022-08-28T14:16:27.292Z,78597.06
2022-08-28T14:18:57.512Z,78611.66
2022-08-28T14:21:27.257Z,78604.59
2022-08-28T14:23:57.244Z,78597.53
2022-08-28T14:26:28.059Z,78606.94
2022-08-28T14:29:01.383Z,78621.00
2022-08-28T14:31:32.910Z,78612.41
2022-08-28T14:34:03.269Z,78606.75
2022-08-28T14:36:34.449Z,78610.19
2022-08-28T14:39:06.941Z,78612.97
2022-08-28T14:41:38.041Z,78609.03
2022-08-28T14:44:08.205Z,78603.91
2022-08-28T14:46:39.485Z,78625.59
2022-08-28T14:49:12.704Z,78633.69
2022-08-28T14:51:45.248Z,78630.44
2022-08-28T14:54:18.382Z,78635.53
2022-08-28T14:56:49.530Z,78627.91
2022-08-28T14:59:24.373Z,78626.31
2022-08-28T15:01:57.199Z,78642.31
2022-08-28T15:04:29.688Z,78645.56
2022-08-28T15:07:01.377Z,78646.41
2022-08-28T15:09:32.193Z,78644.91
2022-08-28T15:12:02.403Z,78647.59
2022-08-28T15:14:32.882Z,78651.59
2022-08-28T15:17:03.295Z,78647.16
2022-08-28T15:19:33.337Z,78638.59
2022-08-28T15:22:05.752Z,78636.78
2022-08-28T15:24:35.927Z,78659.41
2022-08-28T15:27:06.516Z,78663.97
2022-08-28T15:29:36.297Z,78670.09
2022-08-28T15:32:06.383Z,78667.03
2022-08-28T15:34:36.738Z,78674.19
2022-08-28T15:37:08.494Z,78668.91
2022-08-28T15:39:56.798Z,78682.19
2022-08-28T15:42:26.906Z,78681.44
2022-08-28T15:45:00.056Z,78688.94
2022-08-28T15:47:29.858Z,78694.78
2022-08-28T15:50:00.323Z,78687.41
2022-08-28T15:52:30.385Z,78694.84
2022-08-28T15:55:01.850Z,78693.28
2022-08-28T15:57:31.848Z,78701.38
2022-08-28T16:00:01.710Z,78688.63
2022-08-28T16:02:34.311Z,78700.47
2022-08-28T16:05:04.486Z,78693.94
2022-08-28T16:07:34.313Z,78707.16
2022-08-28T16:10:08.334Z,78684.72
2022-08-28T16:12:42.426Z,78687.25
2022-08-28T16:15:13.135Z,78703.81
2022-08-28T16:17:42.924Z,78707.34
2022-08-28T16:20:14.001Z,78716.91
2022-08-28T16:22:44.212Z,78702.22
2022-08-28T16:25:14.415Z,78702.97
2022-08-28T16:27:44.326Z,78719.09
2022-08-28T16:30:16.120Z,78693.47
2022-08-28T16:32:46.898Z,78699.19
2022-08-28T16:35:17.963Z,78707.75
2022-08-28T16:37:48.200Z,78707.78
2022-08-28T16:40:18.227Z,78704.78
2022-08-28T16:42:51.695Z,78709.31
2022-08-28T16:45:22.456Z,78702.22
2022-08-28T16:47:52.725Z,78709.66
2022-08-28T16:50:22.850Z,78706.66
2022-08-28T16:52:52.750Z,78708.06
2022-08-28T16:55:22.773Z,78706.81
2022-08-28T16:57:52.593Z,78683.66
2022-08-28T17:00:24.267Z,78699.66
2022-08-28T17:02:55.348Z,78704.53
2022-08-28T17:05:26.405Z,78700.53
2022-08-28T17:07:56.732Z,78692.09
2022-08-28T17:10:27.036Z,78698.06
2022-08-28T17:12:57.981Z,78697.59
2022-08-28T17:15:28.175Z,78683.56
2022-08-28T17:17:59.273Z,78701.13
2022-08-28T17:20:47.720Z,78686.41
2022-08-28T17:23:18.176Z,78702.91
2022-08-28T17:25:47.906Z,78676.47
2022-08-28T17:28:18.118Z,78702.25
2022-08-28T17:30:47.902Z,78714.97
2022-08-28T17:33:17.758Z,78701.28
2022-08-28T17:35:50.345Z,78716.94
2022-08-28T17:38:22.178Z,78703.06
2022-08-28T17:40:51.834Z,78697.28
2022-08-28T17:43:22.949Z,78705.69
2022-08-28T17:45:52.889Z,78709.84
2022-08-28T17:48:22.565Z,78713.00
2022-08-28T17:50:52.751Z,78709.13
2022-08-28T17:53:27.587Z,78707.63
2022-08-28T17:55:57.970Z,78718.97
2022-08-28T17:58:27.698Z,78714.97
2022-08-28T18:00:57.446Z,78717.44
2022-08-28T18:03:27.956Z,78712.19
2022-08-28T18:05:58.760Z,78707.19
2022-08-28T18:08:29.466Z,78722.56
2022-08-28T18:11:00.104Z,78717.09
2022-08-28T18:13:29.988Z,78717.09
2022-08-28T18:15:59.970Z,78703.84
2022-08-28T18:18:36.430Z,78716.88
2022-08-28T18:21:06.909Z,78712.25
2022-08-28T18:23:36.686Z,78722.00
2022-08-28T18:26:06.384Z,78709.50
2022-08-28T18:28:37.663Z,78712.13
2022-08-28T18:31:09.413Z,78720.69
2022-08-28T18:33:39.617Z,78702.81
2022-08-28T18:36:12.289Z,78723.38
2022-08-28T18:38:44.066Z,78715.41
2022-08-28T18:41:14.437Z,78708.34
2022-08-28T18:43:44.634Z,78701.91
2022-08-28T18:46:15.587Z,78708.69
2022-08-28T18:48:45.695Z,78716.59
2022-08-28T18:51:15.977Z,78725.81
2022-08-28T18:53:52.236Z,78726.69
2022-08-28T18:56:21.951Z,78715.59
2022-08-28T18:58:53.212Z,78715.19
2022-08-28T19:01:23.380Z,78703.09
2022-08-28T19:03:53.350Z,78710.84
2022-08-28T19:06:23.680Z,78717.84
2022-08-28T19:08:53.661Z,78717.19
2022-08-28T19:11:23.284Z,78712.13
2022-08-28T19:13:53.254Z,78715.66
2022-08-28T19:16:23.147Z,78703.66
2022-08-28T19:18:56.023Z,78713.28
2022-08-28T19:21:27.698Z,78695.63
2022-08-28T19:23:58.261Z,78702.50
2022-08-28T19:26:29.984Z,78715.56
2022-08-28T19:28:59.879Z,78707.66
2022-08-28T19:31:29.901Z,78715.16
2022-08-28T19:34:00.096Z,78712.34
2022-08-28T19:36:31.731Z,78709.97
2022-08-28T19:39:02.400Z,78709.69
2022-08-28T19:41:33.739Z,78701.34
2022-08-28T19:44:04.752Z,78709.34
2022-08-28T19:46:36.651Z,78701.22
2022-08-28T19:49:09.197Z,78716.25
2022-08-28T19:51:40.186Z,78719.59
2022-08-28T19:54:15.640Z,78724.41
2022-08-28T19:56:45.748Z,78722.03
2022-08-28T19:59:15.629Z,78713.09
2022-08-28T20:01:47.586Z,78723.03
2022-08-28T20:04:19.124Z,78720.34
2022-08-28T20:06:49.419Z,78721.53
2022-08-28T20:09:20.187Z,78713.94
2022-08-28T20:11:51.052Z,78719.13
2022-08-28T20:14:22.098Z,78714.09
2022-08-28T20:16:53.452Z,78713.50
2022-08-28T20:19:24.777Z,78714.25
2022-08-28T20:21:54.986Z,78712.53
2022-08-28T20:24:26.353Z,78710.47
2022-08-28T20:26:56.255Z,78698.81
2022-08-28T20:29:25.973Z,78709.84
2022-08-28T20:31:56.554Z,78699.97
2022-08-28T20:34:27.004Z,78700.69
2022-08-28T20:36:56.966Z,78701.13
2022-08-28T20:39:27.153Z,78677.63
2022-08-28T20:41:57.131Z,78706.50
2022-08-28T20:44:27.154Z,78700.19
2022-08-28T20:46:56.908Z,78709.66
2022-08-28T20:49:26.853Z,78691.66
2022-08-28T20:52:02.253Z,78706.50
2022-08-28T20:54:38.569Z,78714.00
2022-08-28T20:57:12.073Z,78708.91
2022-08-28T20:59:44.748Z,78706.22
2022-08-28T21:02:21.860Z,78703.69
2022-08-28T21:04:52.281Z,78706.38
2022-08-28T21:07:24.296Z,78714.31
2022-08-28T21:10:05.552Z,78705.72
2022-08-28T21:12:39.330Z,78716.41
2022-08-28T21:15:12.450Z,78728.84
2022-08-28T21:17:43.428Z,78710.50
2022-08-28T21:20:17.580Z,78724.13
2022-08-28T21:22:48.371Z,78710.84
2022-08-28T21:25:19.411Z,78721.53
2022-08-28T21:27:49.968Z,78722.44
2022-08-28T21:30:22.108Z,78715.63
2022-08-28T21:32:52.952Z,78712.56
2022-08-28T21:35:22.897Z,78720.41
2022-08-28T21:37:53.726Z,78710.06
2022-08-28T21:40:23.858Z,78710.88
2022-08-28T21:42:54.377Z,78714.88
2022-08-28T21:45:24.041Z,78703.03
2022-08-28T21:47:53.899Z,78718.84
2022-08-28T21:50:23.648Z,78697.66
2022-08-28T21:52:53.709Z,78710.59
2022-08-28T21:55:23.771Z,78707.34
2022-08-28T21:57:53.909Z,78706.13
2022-08-28T22:00:25.510Z,78714.97
2022-08-28T22:02:55.441Z,78725.06
2022-08-28T22:05:25.294Z,78719.91
2022-08-28T22:07:55.050Z,78710.78
2022-08-28T22:10:26.982Z,78709.50
2022-08-28T22:12:57.882Z,78726.06
2022-08-28T22:15:27.744Z,78716.34
2022-08-28T22:17:57.588Z,78722.13
2022-08-28T22:20:28.734Z,78728.75
2022-08-28T22:23:14.442Z,78723.03
2022-08-28T22:25:48.292Z,78723.44
2022-08-28T22:28:18.159Z,78729.81
2022-08-28T22:30:48.000Z,78714.91
2022-08-28T22:33:19.240Z,78733.84
2022-08-28T22:35:51.253Z,78737.00
2022-08-28T22:38:23.349Z,78736.59
2022-08-28T22:40:53.715Z,78734.44
2022-08-28T22:43:24.276Z,78736.78
2022-08-28T22:45:54.239Z,78726.25
2022-08-28T22:48:23.877Z,78718.25
2022-08-28T22:51:01.903Z,78742.81
2022-08-28T22:53:32.419Z,78724.41
2022-08-28T22:56:03.097Z,78736.84
2022-08-28T22:58:34.345Z,78728.00
2022-08-28T23:01:10.520Z,78728.13
2022-08-28T23:03:40.918Z,78730.91
2022-08-28T23:06:11.115Z,78740.41
2022-08-28T23:08:41.040Z,78730.81
2022-08-28T23:11:12.077Z,78739.03
2022-08-28T23:13:42.568Z,78734.72
2022-08-28T23:16:14.434Z,78755.66
2022-08-28T23:19:06.695Z,78732.78
2022-08-28T23:21:34.464Z,78735.88
2022-08-28T23:24:04.227Z,78745.00
2022-08-28T23:26:33.949Z,78745.56
2022-08-28T23:29:04.350Z,78762.41
2022-08-28T23:31:34.264Z,78757.88
2022-08-28T23:34:05.993Z,78755.31
2022-08-28T23:36:36.717Z,78750.81
2022-08-28T23:39:07.052Z,78757.34
2022-08-28T23:41:37.167Z,78766.59
2022-08-28T23:44:08.943Z,78766.50
2022-08-28T23:46:41.071Z,78773.34
2022-08-28T23:49:13.140Z,78779.56
2022-08-28T23:51:43.820Z,78744.50
2022-08-28T23:54:14.923Z,78745.50
2022-08-28T23:56:45.452Z,78763.31
2022-08-28T23:59:15.255Z,78758.88
